Time;durP1;ratioP1;P1;durP2;ratioP2;P2;SDS_P1;SDS_P2;PMS_P1;PMS_P2;Temp;Humidity;BMP_temperature;BMP_pressure;BME280_temperature;BME280_humidity;BME280_pressure;Samples;Min_cycle;Max_cycle;Signal;HPM_P1;HPM_P2
2022/09/13 00:01:50;;;;;;;6.77;3.07;;;;;;;;;;4884917;29;20223;-43
2022/09/13 00:04:16;;;;;;;5.23;2.73;;;;;;;;;;4889135;29;20255;-43
2022/09/13 00:06:42;;;;;;;7.03;3.23;;;;;;;;;;4889334;29;21631;-43
2022/09/13 00:09:08;;;;;;;3.83;2.90;;;;;;;;;;4886569;28;22747;-43
2022/09/13 00:11:34;;;;;;;6.43;2.77;;;;;;;;;;4889272;29;20649;-43
2022/09/13 00:14:02;;;;;;;6.40;3.30;;;;;;;;;;4889331;29;20195;-43
2022/09/13 00:16:28;;;;;;;6.63;2.93;;;;;;;;;;4889840;29;20215;-42
2022/09/13 00:18:55;;;;;;;5.93;2.80;;;;;;;;;;4893815;29;20184;-43
2022/09/13 00:21:22;;;;;;;6.03;2.80;;;;;;;;;;4886827;29;20176;-43
2022/09/13 00:23:49;;;;;;;6.10;3.10;;;;;;;;;;4889351;29;20267;-43
2022/09/13 00:26:17;;;;;;;4.73;3.00;;;;;;;;;;4891535;28;20185;-43
2022/09/13 00:28:46;;;;;;;5.10;2.70;;;;;;;;;;4895542;29;20724;-43
2022/09/13 00:31:12;;;;;;;5.73;2.97;;;;;;;;;;4892291;29;20215;-43
2022/09/13 00:33:39;;;;;;;6.87;3.10;;;;;;;;;;4889087;29;20443;-43
2022/09/13 00:36:06;;;;;;;7.27;2.93;;;;;;;;;;4891722;29;20727;-43
2022/09/13 00:38:34;;;;;;;4.83;2.90;;;;;;;;;;4891230;29;21235;-43
2022/09/13 00:41:00;;;;;;;4.77;2.70;;;;;;;;;;4891306;29;20423;-43
2022/09/13 00:43:43;;;;;;;7.83;2.93;;;;;;;;;;4886136;29;20214;-43
2022/09/13 00:46:11;;;;;;;6.97;2.93;;;;;;;;;;4878729;28;20748;-43
2022/09/13 00:48:37;;;;;;;5.27;2.87;;;;;;;;;;4882896;29;20748;-43
2022/09/13 00:51:04;;;;;;;7.47;3.40;;;;;;;;;;4890208;29;20610;-43
2022/09/13 00:53:32;;;;;;;5.93;2.77;;;;;;;;;;4888686;29;20180;-43
2022/09/13 00:56:05;;;;;;;6.13;2.83;;;;;;;;;;4893483;28;20413;-43
2022/09/13 00:58:36;;;;;;;4.07;2.93;;;;;;;;;;4893120;29;20184;-43
2022/09/13 01:01:03;;;;;;;6.07;3.13;;;;;;;;;;4890843;29;20743;-43
2022/09/13 01:03:31;;;;;;;4.33;3.00;;;;;;;;;;4885588;29;20191;-43
2022/09/13 01:06:01;;;;;;;6.57;3.17;;;;;;;;;;4888411;29;20307;-43
2022/09/13 01:08:30;;;;;;;4.80;2.80;;;;;;;;;;4891248;29;20180;-43
2022/09/13 01:10:58;;;;;;;4.10;2.90;;;;;;;;;;4888290;29;20192;-43
2022/09/13 01:13:26;;;;;;;4.77;2.30;;;;;;;;;;4890146;29;20585;-43
2022/09/13 01:15:52;;;;;;;5.03;2.90;;;;;;;;;;4887192;29;20178;-43
2022/09/13 01:18:18;;;;;;;3.87;2.90;;;;;;;;;;4893501;29;20953;-43
2022/09/13 01:20:50;;;;;;;6.03;3.40;;;;;;;;;;4893548;29;20181;-43
2022/09/13 01:23:35;;;;;;;5.37;3.60;;;;;;;;;;4889561;29;21580;-42
2022/09/13 01:26:10;;;;;;;5.50;3.77;;;;;;;;;;4889090;29;20732;-43
2022/09/13 01:28:55;;;;;;;5.07;3.10;;;;;;;;;;4891313;29;20183;-42
2022/09/13 01:31:24;;;;;;;4.57;3.27;;;;;;;;;;4888931;29;21612;-43
2022/09/13 01:33:56;;;;;;;4.57;3.13;;;;;;;;;;4888278;29;20601;-43
2022/09/13 01:36:22;;;;;;;4.07;3.43;;;;;;;;;;4883537;29;20176;-43
2022/09/13 01:39:05;;;;;;;4.17;2.77;;;;;;;;;;4891849;29;20187;-43
2022/09/13 01:42:10;;;;;;;5.60;2.97;;;;;;;;;;4887949;29;20925;-43
2022/09/13 01:44:46;;;;;;;4.17;3.10;;;;;;;;;;4901649;28;20591;-43
2022/09/13 01:47:21;;;;;;;5.43;2.70;;;;;;;;;;4880530;28;20712;-43
2022/09/13 01:49:52;;;;;;;4.33;3.13;;;;;;;;;;4896219;28;20864;-43
2022/09/13 01:52:25;;;;;;;6.20;3.20;;;;;;;;;;4886571;29;20395;-43
2022/09/13 01:55:10;;;;;;;3.33;2.70;;;;;;;;;;4886853;29;20274;-43
2022/09/13 01:58:03;;;;;;;3.97;2.87;;;;;;;;;;4889868;29;20191;-43
2022/09/13 02:00:30;;;;;;;5.20;3.00;;;;;;;;;;4893429;28;20363;-43
2022/09/13 02:03:09;;;;;;;3.90;3.40;;;;;;;;;;4893875;29;20640;-43
2022/09/13 02:06:08;;;;;;;3.60;2.73;;;;;;;;;;4887165;29;20839;-44
2022/09/13 02:08:37;;;;;;;5.27;3.13;;;;;;;;;;4902412;28;20515;-44
2022/09/13 02:11:13;;;;;;;5.47;3.27;;;;;;;;;;4897056;29;20636;-44
2022/09/13 02:13:55;;;;;;;4.50;2.70;;;;;;;;;;4892749;29;20183;-44
2022/09/13 02:16:28;;;;;;;6.67;3.07;;;;;;;;;;4888497;29;20180;-44
2022/09/13 02:18:58;;;;;;;6.87;3.20;;;;;;;;;;4892915;29;20482;-44
2022/09/13 02:21:29;;;;;;;4.77;3.30;;;;;;;;;;4889200;29;20306;-44
2022/09/13 02:24:01;;;;;;;3.73;3.23;;;;;;;;;;4890506;29;20478;-43
2022/09/13 02:26:28;;;;;;;4.60;3.80;;;;;;;;;;4886265;29;20184;-44
2022/09/13 02:28:57;;;;;;;6.00;3.50;;;;;;;;;;4886767;29;20665;-44
2022/09/13 02:31:30;;;;;;;5.37;3.47;;;;;;;;;;4891202;29;20331;-44
2022/09/13 02:34:14;;;;;;;8.17;4.23;;;;;;;;;;4890442;29;20739;-44
2022/09/13 02:36:42;;;;;;;4.83;3.57;;;;;;;;;;4888093;29;20185;-44
2022/09/13 02:39:15;;;;;;;5.50;3.83;;;;;;;;;;4893318;29;20254;-44
2022/09/13 02:41:46;;;;;;;6.70;3.93;;;;;;;;;;4886720;29;20422;-43
2022/09/13 02:44:19;;;;;;;4.63;3.93;;;;;;;;;;4888350;29;20590;-44
2022/09/13 02:46:54;;;;;;;6.03;4.00;;;;;;;;;;4889456;29;20430;-44
2022/09/13 02:49:26;;;;;;;5.57;3.80;;;;;;;;;;4891320;29;20191;-44
2022/09/13 02:52:06;;;;;;;7.87;3.70;;;;;;;;;;4889419;29;20187;-44
2022/09/13 02:54:32;;;;;;;7.27;3.77;;;;;;;;;;4892338;29;20188;-44
2022/09/13 02:57:02;;;;;;;6.03;3.90;;;;;;;;;;4886966;29;20759;-44
2022/09/13 02:59:28;;;;;;;8.00;4.07;;;;;;;;;;4890399;29;20199;-44
2022/09/13 03:01:58;;;;;;;7.17;4.60;;;;;;;;;;4890201;29;20180;-44
2022/09/13 03:04:24;;;;;;;7.90;5.13;;;;;;;;;;4889106;29;20180;-44
2022/09/13 03:06:50;;;;;;;7.20;4.80;;;;;;;;;;4888015;29;20958;-44
2022/09/13 03:09:17;;;;;;;6.13;5.10;;;;;;;;;;4890488;29;20176;-44
2022/09/13 03:12:02;;;;;;;10.30;5.20;;;;;;;;;;4891446;29;20196;-43
2022/09/13 03:14:34;;;;;;;6.77;5.73;;;;;;;;;;4887897;29;20704;-44
2022/09/13 03:17:00;;;;;;;10.27;6.20;;;;;;;;;;4889716;29;20577;-44
2022/09/13 03:19:33;;;;;;;7.60;6.27;;;;;;;;;;4895250;29;20476;-44
2022/09/13 03:22:18;;;;;;;7.43;6.10;;;;;;;;;;4893357;29;20673;-43
2022/09/13 03:24:50;;;;;;;9.70;6.70;;;;;;;;;;4892785;29;20188;-44
2022/09/13 03:27:23;;;;;;;10.27;7.43;;;;;;;;;;4889049;29;22174;-43
2022/09/13 03:29:49;;;;;;;10.20;7.40;;;;;;;;;;4892380;29;20215;-43
2022/09/13 03:32:23;;;;;;;10.30;7.87;;;;;;;;;;4892206;29;20628;-43
2022/09/13 03:34:58;;;;;;;11.37;8.87;;;;;;;;;;4890731;29;20689;-44
2022/09/13 03:37:24;;;;;;;13.90;10.77;;;;;;;;;;4890275;29;20164;-44
2022/09/13 03:39:59;;;;;;;13.90;10.33;;;;;;;;;;4894731;29;20492;-44
2022/09/13 03:42:31;;;;;;;12.83;10.57;;;;;;;;;;4887079;29;20605;-43
2022/09/13 03:44:58;;;;;;;10.47;8.83;;;;;;;;;;4893075;29;20211;-44
2022/09/13 03:47:25;;;;;;;11.17;8.57;;;;;;;;;;4887315;29;20993;-44
2022/09/13 03:49:52;;;;;;;13.70;9.00;;;;;;;;;;4888877;29;20192;-43
2022/09/13 03:52:19;;;;;;;15.07;8.97;;;;;;;;;;4893136;29;20639;-44
2022/09/13 03:54:45;;;;;;;11.20;9.57;;;;;;;;;;4892980;29;20689;-44
2022/09/13 03:57:13;;;;;;;15.73;9.63;;;;;;;;;;4886113;28;20560;-43
2022/09/13 03:59:41;;;;;;;13.90;10.37;;;;;;;;;;4891364;29;20180;-43
2022/09/13 04:02:09;;;;;;;15.17;9.90;;;;;;;;;;4879300;29;20180;-44
2022/09/13 04:04:36;;;;;;;14.97;10.00;;;;;;;;;;4888802;29;20218;-44
2022/09/13 04:07:03;;;;;;;15.33;10.00;;;;;;;;;;4890758;29;20609;-43
2022/09/13 04:09:29;;;;;;;10.40;9.30;;;;;;;;;;4887915;29;20725;-43
2022/09/13 04:11:56;;;;;;;10.57;7.97;;;;;;;;;;4888949;28;20417;-44
2022/09/13 04:14:25;;;;;;;11.43;8.60;;;;;;;;;;4887332;29;20180;-44
2022/09/13 04:16:51;;;;;;;14.33;10.03;;;;;;;;;;4882691;29;20526;-44
2022/09/13 04:19:17;;;;;;;10.47;9.33;;;;;;;;;;4883113;29;20176;-44
2022/09/13 04:21:43;;;;;;;13.30;10.30;;;;;;;;;;4881470;29;21824;-43
2022/09/13 04:24:09;;;;;;;12.27;9.93;;;;;;;;;;4885225;28;20214;-43
2022/09/13 04:26:35;;;;;;;16.50;10.20;;;;;;;;;;4892441;29;20176;-43
2022/09/13 04:29:01;;;;;;;15.83;10.40;;;;;;;;;;4887771;29;20191;-44
2022/09/13 04:31:27;;;;;;;12.40;10.97;;;;;;;;;;4880047;29;20433;-43
2022/09/13 04:33:53;;;;;;;15.30;10.07;;;;;;;;;;4889055;28;20689;-44
2022/09/13 04:36:20;;;;;;;12.30;10.53;;;;;;;;;;4889294;29;20969;-44
2022/09/13 04:38:46;;;;;;;11.83;9.87;;;;;;;;;;4890458;29;20194;-44
2022/09/13 04:41:12;;;;;;;15.53;10.47;;;;;;;;;;4886287;29;20959;-45
2022/09/13 04:43:39;;;;;;;13.50;10.03;;;;;;;;;;4886730;29;20557;-44
2022/09/13 04:46:05;;;;;;;16.80;10.67;;;;;;;;;;4885497;29;20196;-45
2022/09/13 04:48:31;;;;;;;13.93;10.10;;;;;;;;;;4888822;29;20478;-45
2022/09/13 04:51:03;;;;;;;14.17;10.10;;;;;;;;;;4892112;28;20222;-44
2022/09/13 04:53:30;;;;;;;14.50;11.10;;;;;;;;;;4881802;29;20239;-44
2022/09/13 04:56:06;;;;;;;15.23;10.60;;;;;;;;;;4891404;29;20210;-44
2022/09/13 04:58:32;;;;;;;15.33;10.37;;;;;;;;;;4886099;29;20885;-45
2022/09/13 05:01:02;;;;;;;16.47;11.20;;;;;;;;;;4889684;29;20264;-44
2022/09/13 05:03:31;;;;;;;15.57;10.67;;;;;;;;;;4892445;29;20413;-44
2022/09/13 05:06:10;;;;;;;16.43;11.73;;;;;;;;;;4896501;29;20266;-44
2022/09/13 05:08:36;;;;;;;23.00;13.03;;;;;;;;;;4890026;28;20180;-44
2022/09/13 05:11:03;;;;;;;18.40;13.00;;;;;;;;;;4889652;29;20197;-44
2022/09/13 05:13:29;;;;;;;12.20;10.63;;;;;;;;;;4892837;29;20670;-44
2022/09/13 05:15:59;;;;;;;21.57;13.53;;;;;;;;;;4891537;29;20735;-44
2022/09/13 05:18:29;;;;;;;13.83;12.30;;;;;;;;;;4890167;29;20430;-44
2022/09/13 05:20:55;;;;;;;16.63;13.50;;;;;;;;;;4889991;29;21105;-44
2022/09/13 05:23:22;;;;;;;17.07;12.87;;;;;;;;;;4894970;29;20180;-44
2022/09/13 05:26:02;;;;;;;16.27;13.93;;;;;;;;;;4881855;29;20199;-44
2022/09/13 05:28:29;;;;;;;14.80;12.00;;;;;;;;;;4897164;28;20550;-44
2022/09/13 05:30:56;;;;;;;23.47;14.77;;;;;;;;;;4888101;29;20263;-44
2022/09/13 05:33:22;;;;;;;20.30;14.37;;;;;;;;;;4892869;29;20180;-44
2022/09/13 05:35:49;;;;;;;18.77;14.23;;;;;;;;;;4883953;29;20187;-44
2022/09/13 05:38:15;;;;;;;24.07;15.43;;;;;;;;;;4889545;29;20180;-44
2022/09/13 05:40:41;;;;;;;22.23;13.80;;;;;;;;;;4903210;28;20519;-44
2022/09/13 05:43:07;;;;;;;23.77;15.00;;;;;;;;;;4886519;28;20762;-44
2022/09/13 05:45:34;;;;;;;18.97;14.40;;;;;;;;;;4893373;28;20191;-44
2022/09/13 05:48:00;;;;;;;26.00;16.30;;;;;;;;;;4893219;29;21042;-44
2022/09/13 05:50:26;;;;;;;21.50;14.17;;;;;;;;;;4896081;29;20208;-44
2022/09/13 05:52:53;;;;;;;20.00;13.67;;;;;;;;;;4889122;29;20180;-44
2022/09/13 05:55:20;;;;;;;23.70;14.33;;;;;;;;;;4888476;29;20595;-44
2022/09/13 05:57:46;;;;;;;16.90;12.93;;;;;;;;;;4894505;29;20837;-44
2022/09/13 06:00:13;;;;;;;20.87;13.50;;;;;;;;;;4896312;29;20365;-44
2022/09/13 06:02:40;;;;;;;22.07;14.70;;;;;;;;;;4889236;29;20255;-44
2022/09/13 06:05:06;;;;;;;18.73;14.83;;;;;;;;;;4893025;29;20642;-44
2022/09/13 06:07:32;;;;;;;18.37;13.63;;;;;;;;;;4897617;29;20230;-44
2022/09/13 06:09:58;;;;;;;20.53;13.67;;;;;;;;;;4899358;29;20379;-44
2022/09/13 06:12:24;;;;;;;20.57;14.37;;;;;;;;;;4894238;28;20943;-43
2022/09/13 06:14:50;;;;;;;18.87;13.37;;;;;;;;;;4889292;29;20400;-44
2022/09/13 06:17:16;;;;;;;23.47;14.47;;;;;;;;;;4892649;29;20761;-43
2022/09/13 06:19:43;;;;;;;22.10;14.17;;;;;;;;;;4905212;28;20286;-43
2022/09/13 06:22:09;;;;;;;16.77;13.00;;;;;;;;;;4887165;29;20176;-44
2022/09/13 06:24:36;;;;;;;18.23;12.33;;;;;;;;;;4888985;29;20271;-44
2022/09/13 06:27:02;;;;;;;21.10;14.87;;;;;;;;;;4889156;29;20224;-45
2022/09/13 06:29:28;;;;;;;24.50;15.17;;;;;;;;;;4892472;29;20431;-44
2022/09/13 06:31:54;;;;;;;26.33;18.53;;;;;;;;;;4888462;29;20562;-44
2022/09/13 06:34:20;;;;;;;22.20;15.47;;;;;;;;;;4892429;29;20300;-44
2022/09/13 06:36:47;;;;;;;23.03;14.97;;;;;;;;;;4895646;29;20176;-44
2022/09/13 06:39:14;;;;;;;26.77;16.40;;;;;;;;;;4893670;29;20231;-44
2022/09/13 06:41:40;;;;;;;22.00;14.47;;;;;;;;;;4900138;29;20250;-45
2022/09/13 06:44:06;;;;;;;24.43;16.43;;;;;;;;;;4900328;29;20311;-44
2022/09/13 06:46:33;;;;;;;18.60;14.40;;;;;;;;;;4898374;29;20524;-44
2022/09/13 06:49:01;;;;;;;25.53;17.63;;;;;;;;;;4894280;29;20538;-44
2022/09/13 06:51:28;;;;;;;21.97;14.30;;;;;;;;;;4895866;29;20319;-44
2022/09/13 06:53:55;;;;;;;23.17;13.47;;;;;;;;;;4896038;29;20406;-44
2022/09/13 06:56:29;;;;;;;22.70;13.77;;;;;;;;;;4897624;29;20180;-44
2022/09/13 06:58:57;;;;;;;16.30;11.63;;;;;;;;;;4899718;29;20452;-44
2022/09/13 07:01:30;;;;;;;17.83;10.40;;;;;;;;;;4896106;29;20188;-44
2022/09/13 07:04:00;;;;;;;19.47;9.43;;;;;;;;;;4896822;29;20497;-44
2022/09/13 07:06:27;;;;;;;13.37;8.30;;;;;;;;;;4899579;29;20203;-44
2022/09/13 07:08:54;;;;;;;13.13;7.87;;;;;;;;;;4913889;28;20287;-44
2022/09/13 07:11:21;;;;;;;12.47;7.53;;;;;;;;;;4897853;29;20212;-44
2022/09/13 07:13:51;;;;;;;13.40;7.47;;;;;;;;;;4907054;28;20187;-44
2022/09/13 07:16:18;;;;;;;18.20;8.83;;;;;;;;;;4898347;29;20180;-44
2022/09/13 07:18:45;;;;;;;17.37;8.90;;;;;;;;;;4904138;29;20176;-44
2022/09/13 07:21:11;;;;;;;14.70;7.27;;;;;;;;;;4894513;29;20728;-44
2022/09/13 07:23:38;;;;;;;14.23;8.53;;;;;;;;;;4896845;29;20298;-45
2022/09/13 07:26:05;;;;;;;11.77;8.57;;;;;;;;;;4899159;29;20216;-44
2022/09/13 07:28:33;;;;;;;13.13;8.23;;;;;;;;;;4899885;29;20180;-44
2022/09/13 07:31:06;;;;;;;15.23;8.00;;;;;;;;;;4889815;29;20334;-44
2022/09/13 07:33:32;;;;;;;14.40;8.17;;;;;;;;;;4895827;29;20184;-44
2022/09/13 07:36:00;;;;;;;16.47;8.17;;;;;;;;;;4898208;29;20176;-44
2022/09/13 07:38:26;;;;;;;11.83;7.27;;;;;;;;;;4898777;29;20188;-44
2022/09/13 07:40:53;;;;;;;13.33;7.50;;;;;;;;;;4900233;29;20308;-44
2022/09/13 07:43:19;;;;;;;9.93;5.93;;;;;;;;;;4893190;29;20588;-44
2022/09/13 07:45:46;;;;;;;9.07;5.53;;;;;;;;;;4897816;29;20180;-44
2022/09/13 07:48:12;;;;;;;10.57;5.33;;;;;;;;;;4894228;29;20660;-44
2022/09/13 07:50:38;;;;;;;10.80;5.77;;;;;;;;;;4892766;29;20663;-45
2022/09/13 07:53:04;;;;;;;9.43;4.63;;;;;;;;;;4895559;29;20183;-45
2022/09/13 07:55:30;;;;;;;8.40;5.07;;;;;;;;;;4892602;29;20916;-45
2022/09/13 07:57:58;;;;;;;7.57;5.47;;;;;;;;;;4894189;29;20739;-45
2022/09/13 08:00:24;;;;;;;7.93;4.50;;;;;;;;;;4890210;29;20537;-44
2022/09/13 08:02:51;;;;;;;9.43;4.70;;;;;;;;;;4896283;29;20267;-45
2022/09/13 08:05:17;;;;;;;9.83;4.40;;;;;;;;;;4899484;29;20658;-44
2022/09/13 08:07:43;;;;;;;5.20;3.67;;;;;;;;;;4893637;28;20204;-45
2022/09/13 08:10:09;;;;;;;7.47;4.43;;;;;;;;;;4894212;29;20632;-45
2022/09/13 08:12:35;;;;;;;10.00;4.60;;;;;;;;;;4895115;29;20168;-45
2022/09/13 08:15:01;;;;;;;8.60;4.90;;;;;;;;;;4897583;29;20180;-44
2022/09/13 08:17:27;;;;;;;10.23;5.33;;;;;;;;;;4902005;29;20202;-45
2022/09/13 08:19:53;;;;;;;8.80;4.60;;;;;;;;;;4902970;29;20677;-45
2022/09/13 08:22:19;;;;;;;7.90;4.20;;;;;;;;;;4899432;29;20701;-45
2022/09/13 08:24:45;;;;;;;10.57;5.00;;;;;;;;;;4895953;29;20181;-45
2022/09/13 08:27:12;;;;;;;9.20;5.00;;;;;;;;;;4900291;29;20719;-45
2022/09/13 08:29:38;;;;;;;10.50;5.67;;;;;;;;;;4901532;29;20176;-45
2022/09/13 08:32:04;;;;;;;9.23;5.13;;;;;;;;;;4900685;29;20211;-45
2022/09/13 08:34:30;;;;;;;6.80;3.90;;;;;;;;;;4898297;29;20715;-45
2022/09/13 08:36:57;;;;;;;8.97;5.10;;;;;;;;;;4902363;29;20988;-45
2022/09/13 08:39:23;;;;;;;8.97;4.90;;;;;;;;;;4901480;29;20262;-45
2022/09/13 08:42:00;;;;;;;9.67;4.40;;;;;;;;;;4913013;28;20188;-45
2022/09/13 08:44:30;;;;;;;10.90;5.60;;;;;;;;;;4894526;29;20484;-45
2022/09/13 08:47:04;;;;;;;7.80;4.50;;;;;;;;;;4894617;29;20546;-45
2022/09/13 08:49:31;;;;;;;8.93;5.17;;;;;;;;;;4890573;29;20184;-44
2022/09/13 08:52:11;;;;;;;12.17;5.97;;;;;;;;;;4902648;29;20673;-44
2022/09/13 08:54:37;;;;;;;7.93;5.23;;;;;;;;;;4897236;29;20179;-44
2022/09/13 08:57:15;;;;;;;9.73;5.30;;;;;;;;;;4898065;29;20180;-44
2022/09/13 08:59:53;;;;;;;10.20;6.07;;;;;;;;;;4899339;29;20607;-44
2022/09/13 09:02:34;;;;;;;9.73;4.70;;;;;;;;;;4900275;29;20227;-44
2022/09/13 09:05:06;;;;;;;7.67;4.47;;;;;;;;;;4899443;28;20656;-44
2022/09/13 09:07:35;;;;;;;8.53;5.40;;;;;;;;;;4899583;29;20182;-44
2022/09/13 09:10:01;;;;;;;8.70;4.87;;;;;;;;;;4906289;28;20731;-44
2022/09/13 09:12:45;;;;;;;9.13;5.23;;;;;;;;;;4892297;29;20434;-43
2022/09/13 09:15:11;;;;;;;13.00;6.23;;;;;;;;;;4888707;29;20185;-44
2022/09/13 09:17:50;;;;;;;8.77;5.07;;;;;;;;;;4883901;29;20207;-43
2022/09/13 09:20:19;;;;;;;10.43;4.93;;;;;;;;;;4888096;29;20192;-43
2022/09/13 09:22:45;;;;;;;8.17;4.03;;;;;;;;;;4894935;29;20668;-43
2022/09/13 09:25:11;;;;;;;8.97;5.27;;;;;;;;;;4895742;29;20683;-43
2022/09/13 09:27:38;;;;;;;10.53;4.90;;;;;;;;;;4896248;29;20673;-43
2022/09/13 09:30:04;;;;;;;11.27;4.50;;;;;;;;;;4895707;29;20690;-43
2022/09/13 09:32:43;;;;;;;15.23;5.50;;;;;;;;;;4897964;29;20548;-43
2022/09/13 09:35:27;;;;;;;8.93;3.50;;;;;;;;;;4896494;29;20172;-43
2022/09/13 09:37:59;;;;;;;6.50;3.53;;;;;;;;;;4896995;29;21092;-43
2022/09/13 09:40:27;;;;;;;7.43;3.10;;;;;;;;;;4893877;29;20180;-43
2022/09/13 09:42:53;;;;;;;8.40;4.50;;;;;;;;;;4898224;29;20256;-43
2022/09/13 09:45:27;;;;;;;10.00;3.87;;;;;;;;;;4898704;29;20581;-43
2022/09/13 09:47:54;;;;;;;7.07;3.70;;;;;;;;;;4893335;29;20807;-43
2022/09/13 09:50:20;;;;;;;5.77;3.10;;;;;;;;;;4897921;29;20633;-43
2022/09/13 09:53:01;;;;;;;12.00;5.77;;;;;;;;;;4896991;29;20192;-44
2022/09/13 09:55:47;;;;;;;10.63;5.40;;;;;;;;;;4896025;28;20180;-44
2022/09/13 09:58:17;;;;;;;9.20;5.17;;;;;;;;;;4904054;28;20594;-44
2022/09/13 10:00:51;;;;;;;11.90;5.77;;;;;;;;;;4899150;29;20613;-44
2022/09/13 10:03:18;;;;;;;8.47;4.27;;;;;;;;;;4893508;29;20415;-44
2022/09/13 10:05:45;;;;;;;9.60;5.00;;;;;;;;;;4894304;29;20681;-44
2022/09/13 10:08:25;;;;;;;13.40;5.33;;;;;;;;;;4898130;29;20180;-45
2022/09/13 10:10:53;;;;;;;12.40;5.33;;;;;;;;;;4895816;29;20223;-44
2022/09/13 10:13:21;;;;;;;10.80;4.77;;;;;;;;;;4897549;29;20176;-44
2022/09/13 10:15:54;;;;;;;10.00;4.97;;;;;;;;;;4897373;29;20226;-43
2022/09/13 10:18:21;;;;;;;8.57;4.80;;;;;;;;;;4902613;29;20864;-44
2022/09/13 10:21:23;;;;;;;12.53;4.73;;;;;;;;;;4903802;29;20456;-44
2022/09/13 10:23:49;;;;;;;9.17;4.37;;;;;;;;;;4934423;28;20539;-44
2022/09/13 10:26:17;;;;;;;7.37;4.03;;;;;;;;;;4902991;28;20256;-44
2022/09/13 10:28:54;;;;;;;9.30;5.27;;;;;;;;;;4901474;29;20184;-43
2022/09/13 10:31:20;;;;;;;9.33;4.40;;;;;;;;;;4902422;29;20200;-44
2022/09/13 10:33:49;;;;;;;8.33;3.50;;;;;;;;;;4900919;29;20786;-44
2022/09/13 10:36:15;;;;;;;14.03;4.40;;;;;;;;;;4900265;29;20180;-44
2022/09/13 10:38:46;;;;;;;7.13;3.60;;;;;;;;;;4896590;29;20190;-43
2022/09/13 10:41:20;;;;;;;9.57;3.97;;;;;;;;;;4898762;28;20223;-44
2022/09/13 10:43:47;;;;;;;7.93;3.90;;;;;;;;;;4902227;29;20226;-44
2022/09/13 10:46:15;;;;;;;6.57;3.10;;;;;;;;;;4896878;29;20188;-44
2022/09/13 10:48:54;;;;;;;3.87;2.50;;;;;;;;;;4897055;29;20184;-43
2022/09/13 10:51:27;;;;;;;5.67;2.90;;;;;;;;;;4897452;29;20655;-42
2022/09/13 10:54:11;;;;;;;5.53;2.70;;;;;;;;;;4903277;29;20188;-44
2022/09/13 10:56:37;;;;;;;4.27;2.60;;;;;;;;;;4899828;29;20215;-43
2022/09/13 10:59:22;;;;;;;6.67;2.50;;;;;;;;;;4898446;29;20217;-44
2022/09/13 11:02:09;;;;;;;5.97;2.40;;;;;;;;;;4903625;29;20629;-44
2022/09/13 11:04:47;;;;;;;7.80;2.50;;;;;;;;;;4900249;29;20180;-44
2022/09/13 11:07:23;;;;;;;6.30;2.00;;;;;;;;;;4900559;29;20635;-44
2022/09/13 11:09:56;;;;;;;4.73;2.10;;;;;;;;;;4896833;29;20184;-44
2022/09/13 11:12:43;;;;;;;9.13;3.03;;;;;;;;;;4901825;29;20395;-44
2022/09/13 11:15:28;;;;;;;6.40;2.73;;;;;;;;;;4897897;29;20644;-44
2022/09/13 11:17:54;;;;;;;6.53;2.93;;;;;;;;;;4900603;29;20289;-44
2022/09/13 11:20:24;;;;;;;5.83;2.70;;;;;;;;;;4899730;29;20180;-43
2022/09/13 11:22:50;;;;;;;3.77;2.50;;;;;;;;;;4900680;29;20640;-44
2022/09/13 11:25:19;;;;;;;5.33;2.00;;;;;;;;;;4901904;29;20184;-44
2022/09/13 11:27:53;;;;;;;6.37;2.57;;;;;;;;;;4899715;28;20172;-44
2022/09/13 11:30:20;;;;;;;4.37;2.27;;;;;;;;;;4895213;29;20534;-44
2022/09/13 11:32:58;;;;;;;7.13;2.50;;;;;;;;;;4899610;29;20487;-44
2022/09/13 11:35:31;;;;;;;8.80;2.37;;;;;;;;;;4902519;29;20517;-44
2022/09/13 11:38:16;;;;;;;7.47;2.40;;;;;;;;;;4903228;29;20520;-43
2022/09/13 11:41:01;;;;;;;8.23;2.60;;;;;;;;;;4902165;29;20203;-43
2022/09/13 11:43:27;;;;;;;6.30;2.50;;;;;;;;;;4898224;29;20856;-44
2022/09/13 11:46:13;;;;;;;5.27;2.77;;;;;;;;;;4898857;29;20643;-44
2022/09/13 11:48:48;;;;;;;7.50;3.00;;;;;;;;;;4898679;29;20186;-44
2022/09/13 11:51:33;;;;;;;5.80;2.53;;;;;;;;;;4898795;29;20525;-44
2022/09/13 11:53:59;;;;;;;8.83;3.10;;;;;;;;;;4898853;29;20688;-43
2022/09/13 11:56:28;;;;;;;8.80;2.87;;;;;;;;;;4901196;29;20255;-44
2022/09/13 11:58:54;;;;;;;4.90;2.60;;;;;;;;;;4901588;29;20467;-44
2022/09/13 12:01:23;;;;;;;7.63;2.83;;;;;;;;;;4899014;29;20984;-44
2022/09/13 12:04:00;;;;;;;5.83;2.60;;;;;;;;;;4899784;29;20393;-43
2022/09/13 12:06:56;;;;;;;7.20;2.57;;;;;;;;;;4897216;29;21213;-44
2022/09/13 12:09:25;;;;;;;8.80;2.37;;;;;;;;;;4900848;28;20202;-43
2022/09/13 12:11:57;;;;;;;4.00;2.30;;;;;;;;;;4894973;29;20534;-44
2022/09/13 12:14:26;;;;;;;5.63;2.60;;;;;;;;;;4896110;29;20169;-44
2022/09/13 12:16:55;;;;;;;7.37;2.63;;;;;;;;;;4901863;29;20681;-44
2022/09/13 12:19:28;;;;;;;7.30;2.90;;;;;;;;;;4899781;29;20628;-43
2022/09/13 12:21:58;;;;;;;6.60;2.60;;;;;;;;;;4892518;29;20207;-44
2022/09/13 12:24:27;;;;;;;6.90;2.77;;;;;;;;;;4896644;29;20775;-43
2022/09/13 12:27:09;;;;;;;5.87;2.80;;;;;;;;;;4899653;29;20765;-44
2022/09/13 12:29:36;;;;;;;6.30;2.53;;;;;;;;;;4896904;29;20188;-44
2022/09/13 12:32:03;;;;;;;7.53;2.50;;;;;;;;;;4897617;29;20683;-43
2022/09/13 12:34:39;;;;;;;5.50;2.20;;;;;;;;;;4895479;29;20180;-43
2022/09/13 12:37:05;;;;;;;4.90;2.00;;;;;;;;;;4901471;29;20501;-44
2022/09/13 12:39:32;;;;;;;4.20;2.20;;;;;;;;;;4895470;28;20187;-44
2022/09/13 12:41:58;;;;;;;3.33;2.03;;;;;;;;;;4896126;29;20259;-44
2022/09/13 12:44:51;;;;;;;5.93;2.53;;;;;;;;;;4899623;29;20712;-44
2022/09/13 12:47:17;;;;;;;5.87;2.57;;;;;;;;;;4914653;28;20188;-44
2022/09/13 12:49:50;;;;;;;12.07;3.93;;;;;;;;;;4898057;29;20274;-44
2022/09/13 12:52:16;;;;;;;6.07;2.80;;;;;;;;;;4899336;29;20223;-44
2022/09/13 12:54:56;;;;;;;7.37;2.93;;;;;;;;;;4902031;29;20205;-44
2022/09/13 12:57:30;;;;;;;6.20;2.73;;;;;;;;;;4896163;29;20172;-44
2022/09/13 12:59:56;;;;;;;7.30;2.80;;;;;;;;;;4893455;29;20175;-44
2022/09/13 13:02:25;;;;;;;10.50;3.00;;;;;;;;;;4898533;28;20531;-44
2022/09/13 13:04:54;;;;;;;5.70;2.70;;;;;;;;;;4898985;29;20799;-44
2022/09/13 13:07:22;;;;;;;7.03;2.87;;;;;;;;;;4896236;29;20700;-44
2022/09/13 13:09:49;;;;;;;5.67;2.40;;;;;;;;;;4897534;29;20685;-43
2022/09/13 13:12:24;;;;;;;6.50;2.60;;;;;;;;;;4896297;29;20298;-44
2022/09/13 13:14:55;;;;;;;9.20;2.70;;;;;;;;;;4900457;29;20274;-44
2022/09/13 13:17:53;;;;;;;4.07;2.40;;;;;;;;;;4899786;29;20554;-44
2022/09/13 13:20:38;;;;;;;7.00;2.17;;;;;;;;;;4916349;28;20194;-44
2022/09/13 13:23:23;;;;;;;7.53;2.13;;;;;;;;;;4897015;29;20168;-44
2022/09/13 13:25:58;;;;;;;8.23;2.73;;;;;;;;;;4895695;29;20332;-44
2022/09/13 13:28:43;;;;;;;5.53;2.30;;;;;;;;;;4899624;29;20274;-44
2022/09/13 13:31:12;;;;;;;9.70;2.73;;;;;;;;;;4900696;29;20272;-44
2022/09/13 13:33:49;;;;;;;8.30;3.10;;;;;;;;;;4897177;29;20792;-44
2022/09/13 13:36:22;;;;;;;6.53;2.80;;;;;;;;;;4898804;29;20690;-44
2022/09/13 13:38:49;;;;;;;6.07;2.50;;;;;;;;;;4895810;29;20610;-44
2022/09/13 13:41:40;;;;;;;5.43;2.50;;;;;;;;;;4903473;29;20186;-44
2022/09/13 13:44:16;;;;;;;6.77;2.30;;;;;;;;;;4898271;29;20610;-44
2022/09/13 13:46:43;;;;;;;5.37;2.50;;;;;;;;;;4896202;29;20884;-44
2022/09/13 13:49:27;;;;;;;6.37;2.53;;;;;;;;;;4897206;29;20736;-44
2022/09/13 13:52:23;;;;;;;11.40;3.03;;;;;;;;;;4899607;29;20661;-44
2022/09/13 13:55:00;;;;;;;6.10;2.57;;;;;;;;;;4900889;28;20903;-44
2022/09/13 13:57:38;;;;;;;8.10;3.17;;;;;;;;;;4896899;29;20223;-44
2022/09/13 14:00:16;;;;;;;3.87;2.20;;;;;;;;;;4899221;29;20184;-44
2022/09/13 14:02:53;;;;;;;9.53;2.70;;;;;;;;;;4901531;29;20549;-44
2022/09/13 14:05:28;;;;;;;10.10;2.90;;;;;;;;;;4896301;29;20835;-44
2022/09/13 14:08:13;;;;;;;9.60;3.00;;;;;;;;;;4897760;29;20735;-44
2022/09/13 14:10:42;;;;;;;6.67;2.80;;;;;;;;;;4894840;29;20208;-44
2022/09/13 14:13:27;;;;;;;4.00;2.27;;;;;;;;;;4896212;29;20501;-44
2022/09/13 14:16:04;;;;;;;6.60;2.40;;;;;;;;;;4895519;29;20625;-44
2022/09/13 14:18:30;;;;;;;4.90;2.40;;;;;;;;;;4894954;29;21257;-44
2022/09/13 14:20:57;;;;;;;6.67;2.77;;;;;;;;;;4903016;28;20285;-44
2022/09/13 14:23:23;;;;;;;4.67;2.40;;;;;;;;;;4896404;29;20615;-44
2022/09/13 14:25:56;;;;;;;7.17;2.20;;;;;;;;;;4900594;29;20201;-44
2022/09/13 14:28:23;;;;;;;3.43;2.40;;;;;;;;;;4898629;29;20178;-44
2022/09/13 14:30:53;;;;;;;6.57;2.77;;;;;;;;;;4897956;29;20702;-44
2022/09/13 14:33:37;;;;;;;5.50;2.40;;;;;;;;;;4897654;29;20245;-45
2022/09/13 14:36:07;;;;;;;5.03;2.07;;;;;;;;;;4895614;29;20190;-45
2022/09/13 14:38:36;;;;;;;8.83;2.70;;;;;;;;;;4899340;29;20246;-44
2022/09/13 14:41:12;;;;;;;7.00;2.40;;;;;;;;;;4897715;29;20177;-44
2022/09/13 14:43:38;;;;;;;6.27;2.50;;;;;;;;;;4897580;29;20182;-45
2022/09/13 14:46:07;;;;;;;4.43;2.40;;;;;;;;;;4894506;29;20583;-44
2022/09/13 14:48:39;;;;;;;3.83;2.10;;;;;;;;;;4899028;29;20185;-44
2022/09/13 14:51:20;;;;;;;6.03;2.20;;;;;;;;;;4894753;29;20997;-44
2022/09/13 14:53:48;;;;;;;6.33;2.33;;;;;;;;;;4896967;29;20533;-44
2022/09/13 14:56:17;;;;;;;4.30;2.10;;;;;;;;;;4895738;29;20182;-44
2022/09/13 14:58:44;;;;;;;3.87;2.30;;;;;;;;;;4899961;29;20459;-44